createdAt,value
2023-01-23T00:03:18.654Z,33.40
2023-01-23T00:05:46.654Z,37.23
2023-01-23T00:08:14.669Z,37.17
2023-01-23T00:10:42.701Z,36.15
2023-01-23T00:13:10.710Z,33.83
2023-01-23T00:15:40.648Z,35.33
2023-01-23T00:18:10.065Z,34.75
2023-01-23T00:20:38.875Z,35.60
2023-01-23T00:23:06.916Z,36.13
2023-01-23T00:25:34.969Z,34.70
2023-01-23T00:28:03.175Z,33.78
2023-01-23T00:30:31.198Z,33.70
2023-01-23T00:32:59.237Z,33.05
2023-01-23T00:35:28.670Z,36.38
2023-01-23T00:37:57.852Z,34.28
2023-01-23T00:40:25.890Z,35.80
2023-01-23T00:42:54.960Z,32.85
2023-01-23T00:45:22.980Z,33.53
2023-01-23T00:47:50.963Z,34.80
2023-01-23T00:50:19.202Z,33.55
2023-01-23T00:52:48.707Z,33.08
2023-01-23T00:55:16.750Z,31.73
2023-01-23T00:57:44.739Z,31.55
2023-01-23T01:00:13.594Z,31.45
2023-01-23T01:02:41.684Z,25.70
2023-01-23T01:05:10.670Z,28.00
2023-01-23T01:07:38.898Z,30.73
2023-01-23T01:10:09.457Z,29.75
2023-01-23T01:12:37.532Z,33.33
2023-01-23T01:15:07.581Z,33.45
2023-01-23T01:17:35.669Z,32.13
2023-01-23T01:20:04.646Z,31.75
2023-01-23T01:22:32.766Z,33.80
2023-01-23T01:25:00.752Z,33.25
2023-01-23T01:27:31.066Z,30.65
2023-01-23T01:29:59.053Z,32.20
2023-01-23T01:32:27.176Z,32.05
2023-01-23T01:34:55.380Z,33.53
2023-01-23T01:37:25.183Z,33.92
2023-01-23T01:39:53.225Z,33.65
2023-01-23T01:42:21.244Z,32.28
2023-01-23T01:44:58.846Z,33.78
2023-01-23T01:47:27.426Z,33.08
2023-01-23T01:49:59.018Z,32.27
2023-01-23T01:52:27.929Z,35.88
2023-01-23T01:55:00.140Z,26.20
2023-01-23T01:57:30.885Z,31.85
2023-01-23T02:00:06.978Z,33.58
2023-01-23T02:02:38.055Z,33.13
2023-01-23T02:05:10.736Z,35.28
2023-01-23T02:07:49.252Z,35.17
2023-01-23T02:10:19.003Z,33.67
2023-01-23T02:12:48.301Z,35.17
2023-01-23T02:15:20.462Z,34.70
2023-01-23T02:17:50.839Z,36.13
2023-01-23T02:20:22.447Z,32.55
2023-01-23T02:23:01.263Z,34.85
2023-01-23T02:25:34.102Z,36.30
2023-01-23T02:28:03.491Z,36.17
2023-01-23T02:30:31.518Z,37.63
2023-01-23T02:33:09.853Z,36.55
2023-01-23T02:35:38.502Z,34.85
2023-01-23T02:38:07.616Z,26.50
2023-01-23T02:40:38.669Z,35.88
2023-01-23T02:43:10.739Z,33.75
2023-01-23T02:45:38.865Z,34.40
2023-01-23T02:48:08.168Z,36.67
2023-01-23T02:50:36.584Z,33.83
2023-01-23T02:53:05.191Z,37.47
2023-01-23T02:55:33.929Z,35.17
2023-01-23T02:58:16.113Z,37.22
2023-01-23T03:00:45.707Z,36.83
2023-01-23T03:03:15.876Z,35.80
2023-01-23T03:05:43.978Z,37.38
2023-01-23T03:08:12.054Z,37.42
2023-01-23T03:10:40.057Z,36.35
2023-01-23T03:13:10.497Z,35.13
2023-01-23T03:15:39.181Z,38.20
2023-01-23T03:18:08.655Z,38.35
2023-01-23T03:23:07.398Z,34.13
2023-01-23T03:25:35.443Z,35.17
2023-01-23T03:28:03.616Z,33.88
2023-01-23T03:30:30.736Z,35.40
2023-01-23T03:32:58.855Z,36.70
2023-01-23T03:35:28.211Z,36.97
2023-01-23T03:37:56.201Z,35.45
2023-01-23T03:40:43.710Z,35.65
2023-01-23T03:43:11.755Z,35.40
2023-01-23T03:45:39.822Z,36.33
2023-01-23T03:48:08.036Z,34.95
2023-01-23T03:50:37.407Z,35.78
2023-01-23T03:53:05.434Z,36.10
2023-01-23T03:55:33.467Z,36.15
2023-01-23T03:58:01.484Z,38.72
2023-01-23T04:00:29.505Z,37.90
2023-01-23T04:02:57.553Z,37.58
2023-01-23T04:05:25.661Z,37.40
2023-01-23T04:07:55.011Z,36.78
2023-01-23T04:10:23.067Z,35.92
2023-01-23T04:12:51.092Z,36.47
2023-01-23T04:15:19.204Z,38.30
2023-01-23T04:17:47.209Z,37.08
2023-01-23T04:20:15.529Z,37.15
2023-01-23T04:22:43.584Z,35.55
2023-01-23T04:25:12.979Z,38.35
2023-01-23T04:27:41.056Z,37.78
2023-01-23T04:30:10.408Z,37.30
2023-01-23T04:32:38.517Z,37.88
2023-01-23T04:35:07.546Z,37.47
2023-01-23T04:37:35.985Z,36.63
2023-01-23T04:40:04.147Z,37.70
2023-01-23T04:42:33.514Z,37.50
2023-01-23T04:45:01.525Z,39.58
2023-01-23T04:47:29.501Z,36.65
2023-01-23T04:49:57.501Z,37.30
2023-01-23T04:52:25.497Z,38.15
2023-01-23T04:54:53.506Z,40.03
2023-01-23T04:57:21.581Z,38.17
2023-01-23T04:59:50.995Z,37.90
2023-01-23T05:02:19.167Z,40.03
2023-01-23T05:04:47.157Z,38.38
2023-01-23T05:07:15.315Z,39.22
2023-01-23T05:09:43.609Z,40.42
2023-01-23T05:12:11.635Z,41.42
2023-01-23T05:14:39.672Z,39.65
2023-01-23T05:17:09.014Z,37.03
2023-01-23T05:19:37.042Z,39.67
2023-01-23T05:22:05.011Z,39.72
2023-01-23T05:24:33.080Z,38.40
2023-01-23T05:27:01.236Z,40.17
2023-01-23T05:29:29.257Z,37.88
2023-01-23T05:31:57.348Z,41.33
2023-01-23T05:34:26.880Z,36.55
2023-01-23T05:39:23.189Z,36.38
2023-01-23T05:41:51.192Z,37.45
2023-01-23T05:44:19.145Z,38.85
2023-01-23T05:46:47.186Z,40.65
2023-01-23T05:49:15.252Z,40.75
2023-01-23T05:51:44.679Z,38.42
2023-01-23T05:54:12.689Z,37.80
2023-01-23T05:56:40.669Z,40.78
2023-01-23T05:59:08.718Z,41.38
2023-01-23T06:01:36.751Z,41.17
2023-01-23T06:04:04.846Z,40.25
2023-01-23T06:06:32.837Z,39.90
2023-01-23T06:09:02.249Z,40.67
2023-01-23T06:11:30.290Z,40.38
2023-01-23T06:13:58.309Z,45.63
2023-01-23T06:16:26.530Z,41.60
2023-01-23T06:18:54.600Z,42.22
2023-01-23T06:21:22.681Z,40.22
2023-01-23T06:23:50.723Z,41.22
2023-01-23T06:26:20.065Z,42.67
2023-01-23T06:28:48.165Z,42.55
2023-01-23T06:31:16.219Z,45.78
2023-01-23T06:33:44.459Z,42.10
2023-01-23T06:36:12.456Z,43.97
2023-01-23T06:38:40.546Z,42.00
2023-01-23T06:41:09.707Z,43.25
2023-01-23T06:43:39.370Z,44.42
2023-01-23T06:46:10.263Z,42.70
2023-01-23T06:48:39.171Z,44.35
2023-01-23T06:51:07.570Z,42.17
2023-01-23T06:53:35.586Z,44.17
2023-01-23T06:56:05.384Z,43.55
2023-01-23T06:58:33.776Z,42.58
2023-01-23T07:01:10.101Z,43.47
2023-01-23T07:03:38.232Z,42.30
2023-01-23T07:06:07.234Z,43.63
2023-01-23T07:08:35.895Z,41.40
2023-01-23T07:11:04.350Z,44.20
2023-01-23T07:13:32.393Z,40.63
2023-01-23T07:16:01.815Z,41.20
2023-01-23T07:20:58.449Z,39.13
2023-01-23T07:23:26.521Z,41.25
2023-01-23T07:26:00.326Z,43.00
2023-01-23T07:28:28.405Z,39.58
2023-01-23T07:30:58.112Z,36.92
2023-01-23T07:33:27.810Z,39.55
2023-01-23T07:35:56.001Z,43.65
2023-01-23T07:38:24.117Z,37.75
2023-01-23T07:40:52.209Z,36.85
2023-01-23T07:43:20.548Z,36.45
2023-01-23T07:45:48.593Z,35.88
2023-01-23T07:48:16.732Z,35.67
2023-01-23T07:50:46.166Z,35.47
2023-01-23T07:53:14.170Z,34.03
2023-01-23T07:55:42.279Z,37.92
2023-01-23T07:58:10.343Z,36.05
2023-01-23T08:00:38.557Z,33.85
2023-01-23T08:03:06.632Z,34.08
2023-01-23T08:05:34.680Z,32.47
2023-01-23T08:08:13.136Z,33.45
2023-01-23T08:10:42.275Z,34.90
2023-01-23T08:13:10.561Z,34.40
2023-01-23T08:15:39.882Z,48.33
2023-01-23T08:18:07.989Z,38.40
2023-01-23T08:20:36.026Z,32.58
2023-01-23T08:23:05.447Z,37.13
2023-01-23T08:25:33.477Z,238.65
2023-01-23T08:28:01.477Z,362.30
2023-01-23T08:30:29.540Z,118.05
2023-01-23T08:32:58.042Z,42.42
2023-01-23T08:35:26.054Z,38.22
2023-01-23T08:37:54.058Z,35.20
2023-01-23T08:40:23.567Z,36.30
2023-01-23T08:45:19.465Z,29.55
2023-01-23T08:47:47.475Z,30.60
2023-01-23T08:50:15.948Z,29.10
2023-01-23T08:52:44.028Z,27.90
2023-01-23T08:55:12.772Z,27.65
2023-01-23T08:57:42.208Z,25.75
2023-01-23T09:00:11.671Z,25.20
2023-01-23T09:05:08.407Z,25.95
2023-01-23T09:07:37.902Z,24.67
2023-01-23T09:12:34.552Z,21.75
2023-01-23T09:15:03.986Z,25.13
2023-01-23T09:17:31.987Z,27.17
2023-01-23T09:20:00.677Z,25.08
2023-01-23T09:22:28.880Z,19.77
2023-01-23T09:24:56.919Z,24.88
2023-01-23T09:27:24.929Z,35.38
2023-01-23T09:29:52.975Z,34.08
2023-01-23T09:32:22.494Z,31.90
2023-01-23T09:37:18.972Z,33.22
2023-01-23T09:39:47.324Z,26.70
2023-01-23T09:42:19.039Z,24.50
2023-01-23T09:44:51.367Z,24.75
2023-01-23T09:47:25.876Z,26.48
2023-01-23T09:50:00.945Z,27.27
2023-01-23T09:52:33.013Z,26.10
2023-01-23T09:55:05.381Z,29.60
2023-01-23T09:57:37.947Z,25.35
2023-01-23T10:00:11.956Z,22.40
2023-01-23T10:02:44.725Z,23.85
2023-01-23T10:05:15.733Z,16.33
2023-01-23T10:08:00.403Z,16.40
2023-01-23T10:10:53.622Z,17.63
2023-01-23T10:13:29.848Z,15.30
2023-01-23T10:16:12.723Z,16.30
2023-01-23T10:18:54.245Z,17.50
2023-01-23T10:21:28.861Z,14.88
2023-01-23T10:24:04.822Z,16.58
2023-01-23T10:26:40.027Z,15.75
2023-01-23T10:29:16.438Z,16.27
2023-01-23T10:31:49.832Z,18.02
2023-01-23T10:34:24.534Z,17.88
2023-01-23T10:37:06.297Z,18.38
2023-01-23T10:39:43.528Z,17.40
2023-01-23T10:42:13.741Z,18.02
2023-01-23T10:44:41.757Z,16.95
2023-01-23T10:47:20.955Z,15.80
2023-01-23T10:49:50.547Z,16.35
2023-01-23T10:55:01.385Z,16.63
2023-01-23T10:57:31.274Z,18.15
2023-01-23T11:00:04.282Z,16.75
2023-01-23T11:02:33.902Z,17.02
2023-01-23T11:05:05.193Z,18.10
2023-01-23T11:07:40.355Z,18.58
2023-01-23T11:10:21.091Z,18.17
2023-01-23T11:12:51.507Z,17.60
2023-01-23T11:15:25.170Z,18.38
2023-01-23T11:17:55.605Z,16.77
2023-01-23T11:20:28.827Z,16.83
2023-01-23T11:23:05.875Z,19.08
2023-01-23T11:25:37.834Z,18.17
2023-01-23T11:28:23.310Z,18.63
2023-01-23T11:31:11.571Z,19.40
2023-01-23T11:33:47.729Z,20.25
2023-01-23T11:36:42.118Z,18.75
2023-01-23T11:39:19.773Z,17.58
2023-01-23T11:41:48.732Z,16.40
2023-01-23T11:44:19.293Z,16.35
2023-01-23T11:47:07.191Z,17.95
2023-01-23T11:49:57.983Z,18.90
2023-01-23T11:52:37.401Z,19.30
2023-01-23T11:55:29.804Z,18.92
2023-01-23T11:58:14.332Z,21.08
2023-01-23T12:00:46.569Z,20.95
2023-01-23T12:03:47.265Z,18.77
2023-01-23T12:06:40.102Z,17.52
2023-01-23T12:09:14.548Z,18.30
2023-01-23T12:11:57.217Z,18.92
2023-01-23T12:14:31.754Z,21.00
2023-01-23T12:17:25.478Z,22.02
2023-01-23T12:20:11.340Z,18.73
2023-01-23T12:22:54.489Z,18.83
2023-01-23T12:25:34.899Z,18.23
2023-01-23T12:28:11.127Z,18.80
2023-01-23T12:31:05.651Z,19.40
2023-01-23T12:33:51.323Z,22.20
2023-01-23T12:36:40.355Z,20.42
2023-01-23T12:39:27.352Z,21.38
2023-01-23T12:42:03.938Z,22.52
2023-01-23T12:44:37.771Z,19.20
2023-01-23T12:47:09.662Z,17.90
2023-01-23T12:49:43.700Z,19.13
2023-01-23T12:52:17.078Z,18.88
2023-01-23T12:54:52.121Z,18.65
2023-01-23T12:57:46.149Z,20.00
2023-01-23T13:00:37.525Z,19.92
2023-01-23T13:03:22.762Z,19.20
2023-01-23T13:06:03.996Z,19.15
2023-01-23T13:08:50.781Z,18.63
2023-01-23T13:11:42.403Z,18.85
2023-01-23T13:14:25.544Z,19.75
2023-01-23T13:16:58.833Z,19.67
2023-01-23T13:19:46.194Z,20.30
2023-01-23T13:22:28.581Z,19.33
2023-01-23T13:25:12.735Z,19.73
2023-01-23T13:27:51.253Z,20.40
2023-01-23T13:30:40.626Z,21.63
2023-01-23T13:33:55.237Z,21.75
2023-01-23T13:36:35.784Z,22.20
2023-01-23T13:39:24.855Z,17.08
2023-01-23T13:42:09.093Z,22.33
2023-01-23T13:44:42.136Z,21.50
2023-01-23T14:24:47.389Z,22.83
2023-01-23T14:27:22.191Z,28.85
2023-01-23T14:29:59.106Z,24.02
2023-01-23T14:32:30.100Z,24.63
2023-01-23T14:34:58.315Z,26.20
2023-01-23T14:37:29.239Z,25.40
2023-01-23T14:40:09.718Z,24.17
2023-01-23T14:42:40.778Z,23.63
2023-01-23T14:45:13.246Z,19.08
2023-01-23T14:47:46.951Z,27.17
2023-01-23T14:50:20.863Z,25.05
2023-01-23T14:52:58.501Z,25.77
2023-01-23T14:55:30.075Z,24.00
2023-01-23T14:58:00.741Z,24.55
2023-01-23T15:00:30.328Z,26.55
2023-01-23T15:02:58.470Z,25.75
2023-01-23T15:05:28.835Z,23.05
2023-01-23T15:08:00.667Z,24.67
2023-01-23T15:10:30.875Z,22.35
2023-01-23T15:13:02.415Z,23.65
2023-01-23T15:15:32.386Z,25.05
2023-01-23T15:18:02.042Z,24.65
2023-01-23T15:20:35.355Z,25.48
2023-01-23T15:23:28.460Z,25.33
2023-01-23T15:26:24.391Z,27.05
2023-01-23T15:28:54.521Z,29.20
2023-01-23T15:31:27.030Z,27.58
2023-01-23T15:33:55.581Z,27.02
2023-01-23T15:36:29.188Z,29.85
2023-01-23T15:39:00.385Z,27.33
2023-01-23T15:41:40.613Z,26.88
2023-01-23T15:44:16.374Z,26.20
2023-01-23T15:46:44.479Z,27.63
2023-01-23T15:49:24.312Z,28.58
2023-01-23T15:51:53.344Z,26.23
2023-01-23T15:54:27.470Z,23.83
2023-01-23T15:57:06.695Z,24.35
2023-01-23T15:59:36.519Z,28.05
2023-01-23T16:02:04.757Z,26.10
2023-01-23T16:04:32.993Z,27.17
2023-01-23T16:07:06.323Z,25.83
2023-01-23T16:09:39.020Z,26.58
2023-01-23T16:12:15.331Z,25.73
2023-01-23T16:14:43.328Z,25.25
2023-01-23T16:17:16.792Z,27.70
2023-01-23T16:19:45.798Z,26.10
2023-01-23T16:22:18.926Z,28.15
2023-01-23T16:24:48.380Z,27.85
2023-01-23T16:27:19.078Z,27.65
2023-01-23T16:29:49.426Z,28.77
2023-01-23T16:32:17.778Z,30.13
2023-01-23T16:34:45.864Z,28.70
2023-01-23T16:37:17.329Z,28.13
2023-01-23T16:39:46.633Z,29.30
2023-01-23T16:42:22.232Z,31.80
2023-01-23T16:44:50.923Z,30.58
2023-01-23T16:47:18.972Z,28.42
2023-01-23T16:49:52.711Z,29.60
2023-01-23T16:52:24.659Z,32.00
2023-01-23T16:54:54.511Z,32.00
2023-01-23T16:57:24.864Z,26.63
2023-01-23T16:59:56.260Z,27.75
2023-01-23T17:02:30.244Z,27.15
2023-01-23T17:04:58.548Z,28.60
2023-01-23T17:07:26.572Z,29.73
2023-01-23T17:09:54.640Z,31.38
2023-01-23T17:12:27.674Z,30.70
2023-01-23T17:14:56.884Z,28.85
2023-01-23T17:17:30.369Z,30.33
2023-01-23T17:19:58.837Z,29.23
2023-01-23T17:22:31.290Z,29.77
2023-01-23T17:24:59.351Z,29.20
2023-01-23T17:27:28.947Z,27.98
2023-01-23T17:32:30.392Z,30.98
2023-01-23T17:35:01.752Z,35.75
2023-01-23T17:37:31.283Z,42.22
2023-01-23T17:39:59.289Z,34.95
2023-01-23T17:42:28.744Z,30.73
2023-01-23T17:44:56.807Z,32.03
2023-01-23T17:47:25.601Z,29.23
2023-01-23T17:49:55.354Z,47.97
2023-01-23T17:52:24.849Z,37.58
2023-01-23T17:59:55.451Z,36.97
2023-01-23T18:02:28.524Z,37.80
2023-01-23T18:04:57.177Z,38.50
2023-01-23T18:07:25.356Z,35.97
2023-01-23T18:09:55.491Z,34.92
2023-01-23T18:12:31.617Z,34.55
2023-01-23T18:15:11.899Z,30.70
2023-01-23T18:17:46.600Z,29.65
2023-01-23T18:20:19.626Z,30.67
2023-01-23T18:22:48.559Z,31.85
2023-01-23T18:25:18.707Z,31.35
2023-01-23T18:27:51.516Z,28.98
2023-01-23T18:30:42.106Z,28.08
2023-01-23T18:33:41.712Z,27.85
2023-01-23T18:36:24.271Z,25.10
2023-01-23T18:39:11.513Z,27.88
2023-01-23T18:41:46.721Z,25.75
2023-01-23T18:44:20.748Z,27.48
2023-01-23T18:46:50.589Z,26.40
2023-01-23T18:49:32.067Z,26.17
2023-01-23T18:52:08.853Z,26.95
2023-01-23T18:54:43.043Z,26.38
2023-01-23T18:57:28.130Z,29.20
2023-01-23T19:00:05.898Z,30.52
2023-01-23T19:02:43.367Z,31.73
2023-01-23T19:05:24.100Z,30.00
2023-01-23T19:07:52.702Z,32.05
2023-01-23T19:10:22.793Z,31.75
2023-01-23T19:13:14.136Z,34.10
2023-01-23T19:15:49.738Z,32.22
2023-01-23T19:18:40.147Z,31.00
2023-01-23T19:21:16.101Z,32.10
2023-01-23T19:23:50.188Z,32.72
2023-01-23T19:26:19.136Z,33.00
2023-01-23T19:28:47.649Z,29.58
2023-01-23T19:31:22.291Z,23.95
2023-01-23T19:33:52.326Z,30.90
2023-01-23T19:36:20.816Z,29.48
2023-01-23T19:38:49.358Z,28.17
2023-01-23T19:41:20.846Z,21.77
2023-01-23T19:43:50.196Z,29.40
2023-01-23T19:46:19.000Z,29.92
2023-01-23T19:48:47.084Z,28.23
2023-01-23T19:51:19.157Z,28.35
2023-01-23T19:53:47.662Z,29.05
2023-01-23T19:56:17.832Z,30.63
2023-01-23T19:58:46.456Z,30.85
2023-01-23T20:01:25.608Z,32.22
2023-01-23T20:03:53.735Z,30.33
2023-01-23T20:06:23.305Z,33.95
2023-01-23T20:11:19.267Z,32.92
2023-01-23T20:13:47.292Z,34.53
2023-01-23T20:16:18.584Z,35.90
2023-01-23T20:18:48.079Z,30.92
2023-01-23T20:21:16.661Z,30.85
2023-01-23T20:23:49.904Z,29.03
2023-01-23T20:26:19.886Z,27.23
2023-01-23T20:28:48.175Z,28.40
2023-01-23T20:31:18.737Z,29.55
2023-01-23T20:33:46.905Z,26.45
2023-01-23T20:36:15.903Z,28.98
2023-01-23T20:38:44.655Z,28.63
2023-01-23T20:41:15.864Z,22.00
2023-01-23T20:43:43.914Z,29.27
2023-01-23T20:46:13.599Z,28.73
2023-01-23T20:48:44.860Z,29.45
2023-01-23T20:51:14.356Z,30.38
2023-01-23T20:53:43.320Z,37.38
2023-01-23T20:56:14.125Z,30.25
2023-01-23T20:59:01.395Z,30.38
2023-01-23T21:01:52.672Z,30.15
2023-01-23T21:04:21.177Z,28.95
2023-01-23T21:06:49.173Z,29.13
2023-01-23T21:09:17.840Z,28.70
2023-01-23T21:11:49.179Z,27.73
2023-01-23T21:14:17.332Z,29.38
2023-01-23T21:16:45.360Z,29.40
2023-01-23T21:19:13.536Z,29.15
2023-01-23T21:21:42.086Z,32.45
2023-01-23T21:24:10.393Z,29.88
2023-01-23T21:26:38.585Z,33.15
2023-01-23T21:29:09.053Z,33.30
2023-01-23T21:31:40.279Z,31.48
2023-01-23T21:34:10.374Z,29.95
2023-01-23T21:36:38.897Z,26.77
2023-01-23T21:39:10.246Z,27.58
2023-01-23T21:41:38.530Z,26.20
2023-01-23T21:44:08.012Z,25.80
2023-01-23T21:49:04.056Z,26.48
2023-01-23T21:51:38.226Z,27.98
2023-01-23T21:54:06.498Z,27.77
2023-01-23T21:56:34.647Z,26.38
2023-01-23T21:59:02.752Z,27.55
2023-01-23T22:01:36.158Z,29.02
2023-01-23T22:04:06.017Z,27.95
2023-01-23T22:06:35.337Z,28.20
2023-01-23T22:09:03.503Z,26.90
2023-01-23T22:11:32.015Z,28.67
2023-01-23T22:14:00.448Z,30.17
2023-01-23T22:16:46.383Z,30.73
2023-01-23T22:19:18.563Z,28.70
2023-01-23T22:21:47.037Z,29.02
2023-01-23T22:24:15.314Z,21.63
2023-01-23T22:26:43.526Z,28.13
2023-01-23T22:29:12.678Z,28.48
2023-01-23T22:31:40.753Z,29.40
2023-01-23T22:34:08.973Z,27.35
2023-01-23T22:36:38.468Z,28.45
2023-01-23T22:41:34.349Z,28.35
2023-01-23T22:44:02.495Z,29.30
2023-01-23T22:46:32.058Z,31.73
2023-01-23T22:49:00.172Z,31.77
2023-01-23T22:51:29.625Z,28.48
2023-01-23T22:53:59.873Z,30.40
2023-01-23T22:56:28.638Z,29.73
2023-01-23T22:58:57.871Z,22.88
2023-01-23T23:01:27.412Z,31.45
2023-01-23T23:03:57.386Z,29.92
2023-01-23T23:06:25.653Z,27.95
2023-01-23T23:08:54.143Z,30.52
2023-01-23T23:11:25.362Z,29.73
2023-01-23T23:13:54.226Z,31.83
2023-01-23T23:16:24.151Z,30.02
2023-01-23T23:18:54.650Z,30.25
2023-01-23T23:21:25.243Z,28.48
2023-01-23T23:23:57.802Z,30.00
2023-01-23T23:26:28.157Z,29.98
2023-01-23T23:28:56.868Z,29.55
2023-01-23T23:31:25.203Z,23.67
2023-01-23T23:33:53.859Z,31.20
2023-01-23T23:36:21.982Z,31.77
2023-01-23T23:38:49.996Z,30.00
2023-01-23T23:41:19.223Z,32.63
2023-01-23T23:43:48.587Z,30.77
2023-01-23T23:46:17.526Z,32.03
2023-01-23T23:48:46.144Z,31.42
2023-01-23T23:51:16.806Z,32.60
2023-01-23T23:53:44.805Z,30.35
2023-01-23T23:56:20.560Z,31.67
2023-01-23T23:58:50.050Z,32.42
